KSNS

Salinas Municipal Airport

Salinas, California, USA
METAR KSNS 191453Z 32003KT 8SM CLR 09/09 A3011 RMK AO2 SLP206 T00940089 53006
Observed Flight Rules
Jan-19 @ 14:53 UTC (26 minutes ago) Visual Flight Rules
Wind Visibility Clouds
320° at 3 knots 8 miles
  • Clear skies
Temperatures Readings
Current 9°C / 48°F
Dewpoint 9°C / 48°F
Humidity 100%
Altimeter 30.11" Hg
Pressure 1020.6 hPa
Elevation 30
METAR KSNS 191453Z 32003KT 8SM CLR 09/09 A3011 RMK AO2 SLP206 T00940089 53006
Observed Flight Rules
Jan-19 @ 14:53 UTC
(26 minutes ago)
VFR
Wind Visibility
320° at 3 knots 8 miles
Clouds
  • Clear skies
Temperature Dewpoint
9°C / 48°F 9°C / 48°F
Humidity Altimeter Pressure
100% 30.11" Hg 1020.6 hPa